sensor_id;sensor_type;location;lat;lon;timestamp;P1;durP1;ratioP1;P2;durP2;ratioP2
13048;SDS011;6591;51.446;5.404;2023-05-07T00:02:05;5.72;;;4.95;;
13048;SDS011;6591;51.446;5.404;2023-05-07T00:04:34;6.15;;;5.03;;
13048;SDS011;6591;51.446;5.404;2023-05-07T00:07:04;6.87;;;5.73;;
13048;SDS011;6591;51.446;5.404;2023-05-07T00:09:31;7.60;;;6.33;;
13048;SDS011;6591;51.446;5.404;2023-05-07T00:11:58;8.53;;;6.90;;
13048;SDS011;6591;51.446;5.404;2023-05-07T00:14:26;7.18;;;6.47;;
13048;SDS011;6591;51.446;5.404;2023-05-07T00:16:53;7.72;;;6.90;;
13048;SDS011;6591;51.446;5.404;2023-05-07T00:19:20;7.67;;;6.87;;
13048;SDS011;6591;51.446;5.404;2023-05-07T00:21:47;7.97;;;7.10;;
13048;SDS011;6591;51.446;5.404;2023-05-07T00:24:15;7.88;;;7.07;;
13048;SDS011;6591;51.446;5.404;2023-05-07T00:26:41;9.43;;;7.95;;
13048;SDS011;6591;51.446;5.404;2023-05-07T00:29:08;9.13;;;8.27;;
13048;SDS011;6591;51.446;5.404;2023-05-07T00:31:35;8.13;;;7.30;;
13048;SDS011;6591;51.446;5.404;2023-05-07T00:34:03;9.13;;;8.18;;
13048;SDS011;6591;51.446;5.404;2023-05-07T00:36:30;9.57;;;8.55;;
13048;SDS011;6591;51.446;5.404;2023-05-07T00:38:58;8.65;;;7.70;;
13048;SDS011;6591;51.446;5.404;2023-05-07T00:41:28;9.32;;;7.97;;
13048;SDS011;6591;51.446;5.404;2023-05-07T00:43:57;9.15;;;7.55;;
13048;SDS011;6591;51.446;5.404;2023-05-07T00:46:24;9.68;;;8.02;;
13048;SDS011;6591;51.446;5.404;2023-05-07T00:48:52;10.23;;;8.40;;
13048;SDS011;6591;51.446;5.404;2023-05-07T00:51:20;9.30;;;8.35;;
13048;SDS011;6591;51.446;5.404;2023-05-07T00:53:48;8.85;;;7.95;;
13048;SDS011;6591;51.446;5.404;2023-05-07T00:56:15;10.17;;;9.07;;
13048;SDS011;6591;51.446;5.404;2023-05-07T00:58:43;12.23;;;9.23;;
13048;SDS011;6591;51.446;5.404;2023-05-07T01:01:10;10.07;;;8.95;;
13048;SDS011;6591;51.446;5.404;2023-05-07T01:03:37;9.40;;;8.45;;
13048;SDS011;6591;51.446;5.404;2023-05-07T01:06:06;11.30;;;9.13;;
13048;SDS011;6591;51.446;5.404;2023-05-07T01:08:36;9.63;;;8.63;;
13048;SDS011;6591;51.446;5.404;2023-05-07T01:11:06;9.43;;;8.32;;
13048;SDS011;6591;51.446;5.404;2023-05-07T01:13:34;9.63;;;8.65;;
13048;SDS011;6591;51.446;5.404;2023-05-07T01:16:03;11.32;;;9.00;;
13048;SDS011;6591;51.446;5.404;2023-05-07T01:18:31;9.85;;;8.85;;
13048;SDS011;6591;51.446;5.404;2023-05-07T01:20:59;10.80;;;9.73;;
13048;SDS011;6591;51.446;5.404;2023-05-07T01:23:30;10.30;;;9.30;;
13048;SDS011;6591;51.446;5.404;2023-05-07T01:26:00;10.35;;;8.43;;
13048;SDS011;6591;51.446;5.404;2023-05-07T01:28:29;10.13;;;8.67;;
13048;SDS011;6591;51.446;5.404;2023-05-07T01:31:00;11.00;;;9.10;;
13048;SDS011;6591;51.446;5.404;2023-05-07T01:33:31;10.40;;;8.45;;
13048;SDS011;6591;51.446;5.404;2023-05-07T01:36:02;9.52;;;8.52;;
13048;SDS011;6591;51.446;5.404;2023-05-07T01:38:33;10.20;;;8.67;;
13048;SDS011;6591;51.446;5.404;2023-05-07T01:41:03;9.70;;;8.70;;
13048;SDS011;6591;51.446;5.404;2023-05-07T01:43:31;9.77;;;8.77;;
13048;SDS011;6591;51.446;5.404;2023-05-07T01:45:58;10.27;;;9.25;;
13048;SDS011;6591;51.446;5.404;2023-05-07T01:48:27;9.67;;;8.67;;
13048;SDS011;6591;51.446;5.404;2023-05-07T01:50:55;10.32;;;9.05;;
13048;SDS011;6591;51.446;5.404;2023-05-07T01:53:22;10.03;;;8.43;;
13048;SDS011;6591;51.446;5.404;2023-05-07T01:55:49;9.98;;;8.95;;
13048;SDS011;6591;51.446;5.404;2023-05-07T01:58:16;9.40;;;8.50;;
13048;SDS011;6591;51.446;5.404;2023-05-07T02:00:43;10.03;;;9.03;;
13048;SDS011;6591;51.446;5.404;2023-05-07T02:03:10;10.05;;;9.05;;
13048;SDS011;6591;51.446;5.404;2023-05-07T02:05:50;9.32;;;8.45;;
13048;SDS011;6591;51.446;5.404;2023-05-07T02:08:30;10.30;;;9.13;;
13048;SDS011;6591;51.446;5.404;2023-05-07T02:10:58;10.13;;;9.00;;
13048;SDS011;6591;51.446;5.404;2023-05-07T02:13:26;10.93;;;9.25;;
13048;SDS011;6591;51.446;5.404;2023-05-07T02:15:56;9.80;;;8.90;;
13048;SDS011;6591;51.446;5.404;2023-05-07T02:18:25;12.13;;;9.43;;
13048;SDS011;6591;51.446;5.404;2023-05-07T02:20:53;10.50;;;9.37;;
13048;SDS011;6591;51.446;5.404;2023-05-07T02:23:20;10.98;;;9.20;;
13048;SDS011;6591;51.446;5.404;2023-05-07T02:25:49;10.75;;;9.65;;
13048;SDS011;6591;51.446;5.404;2023-05-07T02:28:16;10.43;;;9.33;;
13048;SDS011;6591;51.446;5.404;2023-05-07T02:30:57;10.47;;;9.40;;
13048;SDS011;6591;51.446;5.404;2023-05-07T02:33:28;10.37;;;9.27;;
13048;SDS011;6591;51.446;5.404;2023-05-07T02:35:56;10.97;;;9.97;;
13048;SDS011;6591;51.446;5.404;2023-05-07T02:38:23;11.35;;;10.18;;
13048;SDS011;6591;51.446;5.404;2023-05-07T02:40:50;11.82;;;10.68;;
13048;SDS011;6591;51.446;5.404;2023-05-07T02:43:17;12.63;;;11.33;;
13048;SDS011;6591;51.446;5.404;2023-05-07T02:45:47;12.10;;;10.95;;
13048;SDS011;6591;51.446;5.404;2023-05-07T02:48:14;12.07;;;10.90;;
13048;SDS011;6591;51.446;5.404;2023-05-07T02:50:41;12.73;;;11.52;;
13048;SDS011;6591;51.446;5.404;2023-05-07T02:53:10;11.93;;;10.70;;
13048;SDS011;6591;51.446;5.404;2023-05-07T02:55:38;14.50;;;11.57;;
13048;SDS011;6591;51.446;5.404;2023-05-07T02:58:05;11.63;;;10.53;;
13048;SDS011;6591;51.446;5.404;2023-05-07T03:00:34;12.60;;;11.30;;
13048;SDS011;6591;51.446;5.404;2023-05-07T03:03:21;14.33;;;11.77;;
13048;SDS011;6591;51.446;5.404;2023-05-07T03:05:48;12.68;;;11.38;;
13048;SDS011;6591;51.446;5.404;2023-05-07T03:08:15;13.55;;;12.07;;
13048;SDS011;6591;51.446;5.404;2023-05-07T03:10:43;13.60;;;12.30;;
13048;SDS011;6591;51.446;5.404;2023-05-07T03:13:10;12.80;;;11.50;;
13048;SDS011;6591;51.446;5.404;2023-05-07T03:15:38;13.17;;;11.80;;
13048;SDS011;6591;51.446;5.404;2023-05-07T03:18:05;14.05;;;12.50;;
13048;SDS011;6591;51.446;5.404;2023-05-07T03:20:32;13.70;;;12.40;;
13048;SDS011;6591;51.446;5.404;2023-05-07T03:22:59;13.40;;;12.05;;
13048;SDS011;6591;51.446;5.404;2023-05-07T03:25:27;13.60;;;12.23;;
13048;SDS011;6591;51.446;5.404;2023-05-07T03:27:56;13.57;;;12.18;;
13048;SDS011;6591;51.446;5.404;2023-05-07T03:30:28;13.48;;;12.18;;
13048;SDS011;6591;51.446;5.404;2023-05-07T03:32:56;13.50;;;12.20;;
13048;SDS011;6591;51.446;5.404;2023-05-07T03:35:23;14.32;;;12.82;;
13048;SDS011;6591;51.446;5.404;2023-05-07T03:37:50;13.98;;;12.57;;
13048;SDS011;6591;51.446;5.404;2023-05-07T03:40:19;13.13;;;11.83;;
13048;SDS011;6591;51.446;5.404;2023-05-07T03:42:50;14.20;;;12.70;;
13048;SDS011;6591;51.446;5.404;2023-05-07T03:45:19;14.15;;;12.65;;
13048;SDS011;6591;51.446;5.404;2023-05-07T03:47:55;12.80;;;11.45;;
13048;SDS011;6591;51.446;5.404;2023-05-07T03:50:23;14.63;;;13.10;;
13048;SDS011;6591;51.446;5.404;2023-05-07T03:52:50;15.17;;;13.57;;
13048;SDS011;6591;51.446;5.404;2023-05-07T03:55:20;14.80;;;13.40;;
13048;SDS011;6591;51.446;5.404;2023-05-07T03:57:52;13.10;;;11.88;;
13048;SDS011;6591;51.446;5.404;2023-05-07T04:00:19;13.57;;;12.27;;
13048;SDS011;6591;51.446;5.404;2023-05-07T04:02:47;14.50;;;12.90;;
13048;SDS011;6591;51.446;5.404;2023-05-07T04:05:20;14.07;;;12.73;;
13048;SDS011;6591;51.446;5.404;2023-05-07T04:07:51;13.30;;;12.00;;
13048;SDS011;6591;51.446;5.404;2023-05-07T04:10:24;14.13;;;12.83;;
13048;SDS011;6591;51.446;5.404;2023-05-07T04:12:54;14.88;;;13.32;;
13048;SDS011;6591;51.446;5.404;2023-05-07T04:15:22;14.40;;;12.95;;
13048;SDS011;6591;51.446;5.404;2023-05-07T04:17:50;13.05;;;11.75;;
13048;SDS011;6591;51.446;5.404;2023-05-07T04:20:20;14.32;;;12.85;;
13048;SDS011;6591;51.446;5.404;2023-05-07T04:22:53;14.73;;;13.23;;
13048;SDS011;6591;51.446;5.404;2023-05-07T04:25:22;14.40;;;12.98;;
13048;SDS011;6591;51.446;5.404;2023-05-07T04:27:57;14.13;;;12.63;;
13048;SDS011;6591;51.446;5.404;2023-05-07T04:30:26;14.32;;;12.90;;
13048;SDS011;6591;51.446;5.404;2023-05-07T04:32:53;13.82;;;12.52;;
13048;SDS011;6591;51.446;5.404;2023-05-07T04:35:22;14.10;;;12.70;;
13048;SDS011;6591;51.446;5.404;2023-05-07T04:37:49;13.95;;;12.55;;
13048;SDS011;6591;51.446;5.404;2023-05-07T04:40:17;15.53;;;13.77;;
13048;SDS011;6591;51.446;5.404;2023-05-07T04:42:44;13.80;;;12.40;;
13048;SDS011;6591;51.446;5.404;2023-05-07T04:45:11;14.07;;;12.68;;
13048;SDS011;6591;51.446;5.404;2023-05-07T04:47:41;14.10;;;12.70;;
13048;SDS011;6591;51.446;5.404;2023-05-07T04:50:08;13.95;;;12.55;;
13048;SDS011;6591;51.446;5.404;2023-05-07T04:52:38;13.85;;;12.40;;
13048;SDS011;6591;51.446;5.404;2023-05-07T04:55:05;13.45;;;12.07;;
13048;SDS011;6591;51.446;5.404;2023-05-07T04:57:36;14.30;;;12.90;;
13048;SDS011;6591;51.446;5.404;2023-05-07T05:00:07;13.52;;;12.02;;
13048;SDS011;6591;51.446;5.404;2023-05-07T05:02:37;14.80;;;13.32;;
13048;SDS011;6591;51.446;5.404;2023-05-07T05:05:05;14.40;;;13.07;;
13048;SDS011;6591;51.446;5.404;2023-05-07T05:07:33;13.30;;;12.00;;
13048;SDS011;6591;51.446;5.404;2023-05-07T05:10:01;14.27;;;12.77;;
13048;SDS011;6591;51.446;5.404;2023-05-07T05:12:33;13.75;;;12.38;;
13048;SDS011;6591;51.446;5.404;2023-05-07T05:15:00;13.88;;;12.48;;
13048;SDS011;6591;51.446;5.404;2023-05-07T05:17:28;13.20;;;11.93;;
13048;SDS011;6591;51.446;5.404;2023-05-07T05:19:55;12.73;;;11.52;;
13048;SDS011;6591;51.446;5.404;2023-05-07T05:22:23;13.48;;;12.18;;
13048;SDS011;6591;51.446;5.404;2023-05-07T05:24:53;12.52;;;11.30;;
13048;SDS011;6591;51.446;5.404;2023-05-07T05:27:20;12.98;;;11.70;;
13048;SDS011;6591;51.446;5.404;2023-05-07T05:29:48;13.65;;;12.20;;
13048;SDS011;6591;51.446;5.404;2023-05-07T05:32:15;15.13;;;12.93;;
13048;SDS011;6591;51.446;5.404;2023-05-07T05:34:43;14.50;;;13.00;;
13048;SDS011;6591;51.446;5.404;2023-05-07T05:37:10;15.48;;;12.50;;
13048;SDS011;6591;51.446;5.404;2023-05-07T05:39:37;13.40;;;12.10;;
13048;SDS011;6591;51.446;5.404;2023-05-07T05:42:05;13.55;;;12.20;;
13048;SDS011;6591;51.446;5.404;2023-05-07T05:44:34;11.85;;;10.70;;
13048;SDS011;6591;51.446;5.404;2023-05-07T05:47:02;13.05;;;11.82;;
13048;SDS011;6591;51.446;5.404;2023-05-07T05:49:29;12.75;;;11.45;;
13048;SDS011;6591;51.446;5.404;2023-05-07T05:51:57;13.75;;;12.20;;
13048;SDS011;6591;51.446;5.404;2023-05-07T05:54:25;13.07;;;11.80;;
13048;SDS011;6591;51.446;5.404;2023-05-07T05:56:52;12.50;;;11.27;;
13048;SDS011;6591;51.446;5.404;2023-05-07T05:59:19;12.40;;;11.20;;
13048;SDS011;6591;51.446;5.404;2023-05-07T06:01:47;12.93;;;11.60;;
13048;SDS011;6591;51.446;5.404;2023-05-07T06:04:15;12.43;;;11.23;;
13048;SDS011;6591;51.446;5.404;2023-05-07T06:06:42;12.32;;;11.13;;
13048;SDS011;6591;51.446;5.404;2023-05-07T06:09:09;11.88;;;10.77;;
13048;SDS011;6591;51.446;5.404;2023-05-07T06:11:41;12.55;;;11.18;;
13048;SDS011;6591;51.446;5.404;2023-05-07T06:14:09;11.90;;;10.77;;
13048;SDS011;6591;51.446;5.404;2023-05-07T06:16:37;12.05;;;10.85;;
13048;SDS011;6591;51.446;5.404;2023-05-07T06:19:06;11.85;;;10.75;;
13048;SDS011;6591;51.446;5.404;2023-05-07T06:21:33;12.05;;;10.85;;
13048;SDS011;6591;51.446;5.404;2023-05-07T06:24:00;11.50;;;10.32;;
13048;SDS011;6591;51.446;5.404;2023-05-07T06:26:28;11.48;;;10.30;;
13048;SDS011;6591;51.446;5.404;2023-05-07T06:28:55;11.13;;;10.05;;
13048;SDS011;6591;51.446;5.404;2023-05-07T06:31:22;10.35;;;9.15;;
13048;SDS011;6591;51.446;5.404;2023-05-07T06:34:01;11.18;;;9.68;;
13048;SDS011;6591;51.446;5.404;2023-05-07T06:36:34;11.23;;;10.02;;
13048;SDS011;6591;51.446;5.404;2023-05-07T06:39:10;10.57;;;9.48;;
13048;SDS011;6591;51.446;5.404;2023-05-07T06:41:37;10.65;;;9.65;;
13048;SDS011;6591;51.446;5.404;2023-05-07T06:44:16;10.57;;;9.57;;
13048;SDS011;6591;51.446;5.404;2023-05-07T06:46:47;10.18;;;9.18;;
13048;SDS011;6591;51.446;5.404;2023-05-07T06:49:14;11.30;;;10.05;;
13048;SDS011;6591;51.446;5.404;2023-05-07T06:51:42;9.48;;;8.57;;
13048;SDS011;6591;51.446;5.404;2023-05-07T06:54:09;9.48;;;8.57;;
13048;SDS011;6591;51.446;5.404;2023-05-07T06:56:38;9.25;;;8.23;;
13048;SDS011;6591;51.446;5.404;2023-05-07T06:59:06;10.88;;;8.63;;
13048;SDS011;6591;51.446;5.404;2023-05-07T07:01:38;9.30;;;8.40;;
13048;SDS011;6591;51.446;5.404;2023-05-07T07:04:06;9.45;;;8.20;;
13048;SDS011;6591;51.446;5.404;2023-05-07T07:06:34;9.55;;;8.68;;
13048;SDS011;6591;51.446;5.404;2023-05-07T07:09:07;8.85;;;8.05;;
13048;SDS011;6591;51.446;5.404;2023-05-07T07:11:34;8.50;;;7.70;;
13048;SDS011;6591;51.446;5.404;2023-05-07T07:14:02;9.00;;;8.20;;
13048;SDS011;6591;51.446;5.404;2023-05-07T07:16:32;9.55;;;8.18;;
13048;SDS011;6591;51.446;5.404;2023-05-07T07:18:59;8.27;;;7.47;;
13048;SDS011;6591;51.446;5.404;2023-05-07T07:21:26;9.40;;;8.23;;
13048;SDS011;6591;51.446;5.404;2023-05-07T07:23:53;8.75;;;7.85;;
13048;SDS011;6591;51.446;5.404;2023-05-07T07:26:20;8.70;;;7.90;;
13048;SDS011;6591;51.446;5.404;2023-05-07T07:28:48;8.95;;;8.05;;
13048;SDS011;6591;51.446;5.404;2023-05-07T07:31:18;8.98;;;7.38;;
13048;SDS011;6591;51.446;5.404;2023-05-07T07:33:46;8.63;;;7.88;;
13048;SDS011;6591;51.446;5.404;2023-05-07T07:36:14;9.63;;;8.75;;
13048;SDS011;6591;51.446;5.404;2023-05-07T07:38:42;8.98;;;8.07;;
13048;SDS011;6591;51.446;5.404;2023-05-07T07:41:09;9.35;;;8.40;;
13048;SDS011;6591;51.446;5.404;2023-05-07T07:43:36;8.52;;;7.72;;
13048;SDS011;6591;51.446;5.404;2023-05-07T07:46:03;8.95;;;8.05;;
13048;SDS011;6591;51.446;5.404;2023-05-07T07:48:32;9.48;;;8.52;;
13048;SDS011;6591;51.446;5.404;2023-05-07T07:50:59;8.13;;;7.35;;
13048;SDS011;6591;51.446;5.404;2023-05-07T07:53:27;9.25;;;8.35;;
13048;SDS011;6591;51.446;5.404;2023-05-07T07:55:54;8.75;;;7.88;;
13048;SDS011;6591;51.446;5.404;2023-05-07T07:58:27;9.40;;;7.72;;
13048;SDS011;6591;51.446;5.404;2023-05-07T08:00:54;8.80;;;7.90;;
13048;SDS011;6591;51.446;5.404;2023-05-07T08:03:23;9.02;;;8.18;;
13048;SDS011;6591;51.446;5.404;2023-05-07T08:05:55;8.45;;;7.60;;
13048;SDS011;6591;51.446;5.404;2023-05-07T08:08:24;9.18;;;8.15;;
13048;SDS011;6591;51.446;5.404;2023-05-07T08:10:53;8.88;;;8.07;;
13048;SDS011;6591;51.446;5.404;2023-05-07T08:13:27;9.10;;;8.20;;
13048;SDS011;6591;51.446;5.404;2023-05-07T08:15:54;8.63;;;7.85;;
13048;SDS011;6591;51.446;5.404;2023-05-07T08:18:21;8.57;;;7.68;;
13048;SDS011;6591;51.446;5.404;2023-05-07T08:20:52;9.00;;;8.10;;
13048;SDS011;6591;51.446;5.404;2023-05-07T08:23:22;8.48;;;7.65;;
13048;SDS011;6591;51.446;5.404;2023-05-07T08:25:49;8.63;;;7.72;;
13048;SDS011;6591;51.446;5.404;2023-05-07T08:28:18;8.48;;;7.63;;
13048;SDS011;6591;51.446;5.404;2023-05-07T08:30:46;8.82;;;7.93;;
13048;SDS011;6591;51.446;5.404;2023-05-07T08:33:14;8.63;;;7.72;;
13048;SDS011;6591;51.446;5.404;2023-05-07T08:35:42;8.02;;;7.32;;
13048;SDS011;6591;51.446;5.404;2023-05-07T08:38:11;7.43;;;6.63;;
13048;SDS011;6591;51.446;5.404;2023-05-07T08:40:39;7.78;;;7.05;;
13048;SDS011;6591;51.446;5.404;2023-05-07T08:43:17;7.50;;;6.80;;
13048;SDS011;6591;51.446;5.404;2023-05-07T08:45:46;8.02;;;7.03;;
13048;SDS011;6591;51.446;5.404;2023-05-07T08:48:19;7.68;;;6.97;;
13048;SDS011;6591;51.446;5.404;2023-05-07T08:51:03;7.90;;;7.18;;
13048;SDS011;6591;51.446;5.404;2023-05-07T08:53:31;8.30;;;7.40;;
13048;SDS011;6591;51.446;5.404;2023-05-07T08:55:59;7.22;;;6.25;;
13048;SDS011;6591;51.446;5.404;2023-05-07T08:58:29;7.53;;;6.82;;
13048;SDS011;6591;51.446;5.404;2023-05-07T09:00:56;7.18;;;6.47;;
13048;SDS011;6591;51.446;5.404;2023-05-07T09:03:27;6.93;;;6.22;;
13048;SDS011;6591;51.446;5.404;2023-05-07T09:05:55;7.05;;;6.35;;
13048;SDS011;6591;51.446;5.404;2023-05-07T09:08:24;6.90;;;6.30;;
13048;SDS011;6591;51.446;5.404;2023-05-07T09:10:55;7.20;;;6.10;;
13048;SDS011;6591;51.446;5.404;2023-05-07T09:13:23;7.55;;;6.78;;
13048;SDS011;6591;51.446;5.404;2023-05-07T09:15:50;6.63;;;6.03;;
13048;SDS011;6591;51.446;5.404;2023-05-07T09:18:18;6.95;;;6.13;;
13048;SDS011;6591;51.446;5.404;2023-05-07T09:20:47;8.00;;;6.40;;
13048;SDS011;6591;51.446;5.404;2023-05-07T09:23:17;7.55;;;5.93;;
13048;SDS011;6591;51.446;5.404;2023-05-07T09:25:44;6.50;;;5.90;;
13048;SDS011;6591;51.446;5.404;2023-05-07T09:28:21;6.32;;;5.72;;
13048;SDS011;6591;51.446;5.404;2023-05-07T09:30:49;6.90;;;5.72;;
13048;SDS011;6591;51.446;5.404;2023-05-07T09:33:17;6.20;;;5.60;;
13048;SDS011;6591;51.446;5.404;2023-05-07T09:35:51;8.02;;;5.93;;
13048;SDS011;6591;51.446;5.404;2023-05-07T09:38:19;6.50;;;5.90;;
13048;SDS011;6591;51.446;5.404;2023-05-07T09:41:05;6.25;;;5.57;;
13048;SDS011;6591;51.446;5.404;2023-05-07T09:44:04;5.95;;;5.45;;
13048;SDS011;6591;51.446;5.404;2023-05-07T09:46:39;5.82;;;5.28;;
13048;SDS011;6591;51.446;5.404;2023-05-07T09:49:21;5.78;;;5.25;;
13048;SDS011;6591;51.446;5.404;2023-05-07T09:51:58;5.72;;;5.13;;
13048;SDS011;6591;51.446;5.404;2023-05-07T09:54:30;7.80;;;5.28;;
13048;SDS011;6591;51.446;5.404;2023-05-07T09:57:01;6.05;;;5.55;;
13048;SDS011;6591;51.446;5.404;2023-05-07T09:59:29;6.40;;;5.43;;
13048;SDS011;6591;51.446;5.404;2023-05-07T10:02:03;5.88;;;5.30;;
13048;SDS011;6591;51.446;5.404;2023-05-07T10:04:38;5.68;;;5.00;;
13048;SDS011;6591;51.446;5.404;2023-05-07T10:07:07;5.38;;;4.88;;
13048;SDS011;6591;51.446;5.404;2023-05-07T10:09:36;5.65;;;5.15;;
13048;SDS011;6591;51.446;5.404;2023-05-07T10:12:14;5.80;;;5.30;;
13048;SDS011;6591;51.446;5.404;2023-05-07T10:14:46;5.75;;;5.25;;
13048;SDS011;6591;51.446;5.404;2023-05-07T10:17:16;6.03;;;5.40;;
13048;SDS011;6591;51.446;5.404;2023-05-07T10:19:45;5.80;;;5.30;;
13048;SDS011;6591;51.446;5.404;2023-05-07T10:22:13;5.72;;;5.22;;
13048;SDS011;6591;51.446;5.404;2023-05-07T10:24:44;5.45;;;5.05;;
13048;SDS011;6591;51.446;5.404;2023-05-07T10:27:19;6.07;;;5.20;;
13048;SDS011;6591;51.446;5.404;2023-05-07T10:29:59;6.20;;;5.70;;
13048;SDS011;6591;51.446;5.404;2023-05-07T10:32:55;5.78;;;5.28;;
13048;SDS011;6591;51.446;5.404;2023-05-07T10:35:44;5.82;;;5.22;;
13048;SDS011;6591;51.446;5.404;2023-05-07T10:38:15;5.57;;;5.07;;
13048;SDS011;6591;51.446;5.404;2023-05-07T10:40:44;5.68;;;5.18;;
13048;SDS011;6591;51.446;5.404;2023-05-07T10:43:15;5.10;;;4.70;;
13048;SDS011;6591;51.446;5.404;2023-05-07T10:46:09;5.55;;;4.93;;
13048;SDS011;6591;51.446;5.404;2023-05-07T10:51:37;5.03;;;4.13;;
13048;SDS011;6591;51.446;5.404;2023-05-07T10:54:19;4.43;;;4.03;;
13048;SDS011;6591;51.446;5.404;2023-05-07T10:57:13;3.85;;;3.55;;
13048;SDS011;6591;51.446;5.404;2023-05-07T11:00:40;4.68;;;3.47;;
13048;SDS011;6591;51.446;5.404;2023-05-07T11:03:09;4.13;;;3.72;;
13048;SDS011;6591;51.446;5.404;2023-05-07T11:05:46;4.78;;;4.10;;
13048;SDS011;6591;51.446;5.404;2023-05-07T11:08:24;3.97;;;3.42;;
13048;SDS011;6591;51.446;5.404;2023-05-07T11:10:59;4.38;;;4.03;;
13048;SDS011;6591;51.446;5.404;2023-05-07T11:13:51;7.20;;;4.32;;
13048;SDS011;6591;51.446;5.404;2023-05-07T11:16:39;4.50;;;4.10;;
13048;SDS011;6591;51.446;5.404;2023-05-07T11:25:25;4.65;;;4.18;;
13048;SDS011;6591;51.446;5.404;2023-05-07T11:28:06;4.43;;;4.10;;
13048;SDS011;6591;51.446;5.404;2023-05-07T11:30:45;5.05;;;4.22;;
13048;SDS011;6591;51.446;5.404;2023-05-07T11:33:18;3.80;;;3.47;;
13048;SDS011;6591;51.446;5.404;2023-05-07T11:35:57;4.47;;;4.13;;
13048;SDS011;6591;51.446;5.404;2023-05-07T11:38:35;4.55;;;4.15;;
13048;SDS011;6591;51.446;5.404;2023-05-07T11:41:04;4.82;;;3.47;;
13048;SDS011;6591;51.446;5.404;2023-05-07T11:43:34;3.60;;;3.30;;
13048;SDS011;6591;51.446;5.404;2023-05-07T11:46:10;5.47;;;4.10;;
13048;SDS011;6591;51.446;5.404;2023-05-07T11:48:41;3.88;;;3.45;;
13048;SDS011;6591;51.446;5.404;2023-05-07T11:51:09;5.90;;;3.95;;
13048;SDS011;6591;51.446;5.404;2023-05-07T11:53:41;3.92;;;3.58;;
13048;SDS011;6591;51.446;5.404;2023-05-07T11:56:10;3.85;;;3.40;;
13048;SDS011;6591;51.446;5.404;2023-05-07T11:58:40;4.30;;;3.95;;
13048;SDS011;6591;51.446;5.404;2023-05-07T12:01:09;4.05;;;3.75;;
13048;SDS011;6591;51.446;5.404;2023-05-07T12:03:42;4.72;;;4.30;;
13048;SDS011;6591;51.446;5.404;2023-05-07T12:06:15;5.10;;;4.60;;
13048;SDS011;6591;51.446;5.404;2023-05-07T12:08:43;4.13;;;3.47;;
13048;SDS011;6591;51.446;5.404;2023-05-07T12:11:21;4.25;;;3.85;;
13048;SDS011;6591;51.446;5.404;2023-05-07T12:13:53;4.22;;;3.78;;
13048;SDS011;6591;51.446;5.404;2023-05-07T12:16:24;4.18;;;3.78;;
13048;SDS011;6591;51.446;5.404;2023-05-07T12:18:53;4.75;;;4.35;;
13048;SDS011;6591;51.446;5.404;2023-05-07T12:21:21;3.75;;;3.17;;
13048;SDS011;6591;51.446;5.404;2023-05-07T12:23:51;4.93;;;1.75;;
13048;SDS011;6591;51.446;5.404;2023-05-07T12:26:19;1.13;;;1.02;;
13048;SDS011;6591;51.446;5.404;2023-05-07T12:28:49;4.15;;;1.48;;
13048;SDS011;6591;51.446;5.404;2023-05-07T12:31:16;3.53;;;1.77;;
13048;SDS011;6591;51.446;5.404;2023-05-07T12:33:44;4.45;;;1.70;;
13048;SDS011;6591;51.446;5.404;2023-05-07T12:36:12;7.40;;;1.90;;
13048;SDS011;6591;51.446;5.404;2023-05-07T12:38:43;3.58;;;1.63;;
13048;SDS011;6591;51.446;5.404;2023-05-07T12:41:10;4.50;;;1.52;;
13048;SDS011;6591;51.446;5.404;2023-05-07T12:43:41;2.05;;;1.17;;
13048;SDS011;6591;51.446;5.404;2023-05-07T12:46:11;1.48;;;1.02;;
13048;SDS011;6591;51.446;5.404;2023-05-07T12:48:43;0.95;;;0.82;;
13048;SDS011;6591;51.446;5.404;2023-05-07T12:51:12;1.42;;;1.02;;
13048;SDS011;6591;51.446;5.404;2023-05-07T12:53:42;2.15;;;1.20;;
13048;SDS011;6591;51.446;5.404;2023-05-07T12:56:09;1.90;;;1.20;;
13048;SDS011;6591;51.446;5.404;2023-05-07T12:58:37;2.58;;;1.35;;
13048;SDS011;6591;51.446;5.404;2023-05-07T13:01:11;1.92;;;1.00;;
13048;SDS011;6591;51.446;5.404;2023-05-07T13:03:41;1.73;;;1.35;;
13048;SDS011;6591;51.446;5.404;2023-05-07T13:06:16;2.80;;;1.40;;
13048;SDS011;6591;51.446;5.404;2023-05-07T13:08:43;2.80;;;1.80;;
13048;SDS011;6591;51.446;5.404;2023-05-07T13:11:11;4.18;;;2.05;;
13048;SDS011;6591;51.446;5.404;2023-05-07T13:13:39;2.92;;;1.70;;
13048;SDS011;6591;51.446;5.404;2023-05-07T13:16:08;3.05;;;1.90;;
13048;SDS011;6591;51.446;5.404;2023-05-07T13:18:38;3.22;;;1.90;;
13048;SDS011;6591;51.446;5.404;2023-05-07T13:21:06;3.08;;;1.90;;
13048;SDS011;6591;51.446;5.404;2023-05-07T13:23:34;2.58;;;1.85;;
13048;SDS011;6591;51.446;5.404;2023-05-07T13:26:01;3.13;;;1.92;;
13048;SDS011;6591;51.446;5.404;2023-05-07T13:28:44;2.55;;;1.90;;
13048;SDS011;6591;51.446;5.404;2023-05-07T13:31:11;3.60;;;1.98;;
13048;SDS011;6591;51.446;5.404;2023-05-07T13:33:45;3.35;;;1.88;;
13048;SDS011;6591;51.446;5.404;2023-05-07T13:36:12;1.95;;;1.60;;
13048;SDS011;6591;51.446;5.404;2023-05-07T13:38:39;2.35;;;1.80;;
13048;SDS011;6591;51.446;5.404;2023-05-07T13:41:06;2.47;;;2.15;;
13048;SDS011;6591;51.446;5.404;2023-05-07T13:43:33;2.10;;;1.90;;
13048;SDS011;6591;51.446;5.404;2023-05-07T13:46:00;4.95;;;2.20;;
13048;SDS011;6591;51.446;5.404;2023-05-07T13:48:27;4.63;;;3.08;;
13048;SDS011;6591;51.446;5.404;2023-05-07T13:50:57;4.40;;;3.70;;
13048;SDS011;6591;51.446;5.404;2023-05-07T13:53:24;4.22;;;3.83;;
13048;SDS011;6591;51.446;5.404;2023-05-07T13:55:51;4.75;;;3.58;;
13048;SDS011;6591;51.446;5.404;2023-05-07T13:58:17;5.18;;;4.30;;
13048;SDS011;6591;51.446;5.404;2023-05-07T14:00:45;4.88;;;4.22;;
13048;SDS011;6591;51.446;5.404;2023-05-07T14:03:11;5.22;;;4.72;;
13048;SDS011;6591;51.446;5.404;2023-05-07T14:05:39;5.63;;;4.15;;
13048;SDS011;6591;51.446;5.404;2023-05-07T14:08:06;5.00;;;4.50;;
13048;SDS011;6591;51.446;5.404;2023-05-07T14:10:34;5.03;;;4.32;;
13048;SDS011;6591;51.446;5.404;2023-05-07T14:13:01;6.97;;;5.35;;
13048;SDS011;6591;51.446;5.404;2023-05-07T14:15:28;5.75;;;5.15;;
13048;SDS011;6591;51.446;5.404;2023-05-07T14:17:55;5.43;;;4.70;;
13048;SDS011;6591;51.446;5.404;2023-05-07T14:20:24;5.18;;;4.70;;
13048;SDS011;6591;51.446;5.404;2023-05-07T14:22:52;6.38;;;5.78;;
13048;SDS011;6591;51.446;5.404;2023-05-07T14:25:18;6.45;;;5.15;;
13048;SDS011;6591;51.446;5.404;2023-05-07T14:27:49;6.20;;;5.60;;
13048;SDS011;6591;51.446;5.404;2023-05-07T14:30:16;5.47;;;4.90;;
13048;SDS011;6591;51.446;5.404;2023-05-07T14:32:43;5.32;;;4.82;;
13048;SDS011;6591;51.446;5.404;2023-05-07T14:35:10;5.40;;;4.90;;
13048;SDS011;6591;51.446;5.404;2023-05-07T14:37:38;5.32;;;4.68;;
13048;SDS011;6591;51.446;5.404;2023-05-07T14:40:05;5.55;;;4.65;;
13048;SDS011;6591;51.446;5.404;2023-05-07T14:42:33;5.68;;;3.97;;
13048;SDS011;6591;51.446;5.404;2023-05-07T14:45:01;4.60;;;3.70;;
13048;SDS011;6591;51.446;5.404;2023-05-07T14:47:29;3.40;;;3.10;;
13048;SDS011;6591;51.446;5.404;2023-05-07T14:49:56;3.33;;;3.03;;
13048;SDS011;6591;51.446;5.404;2023-05-07T14:52:23;3.75;;;3.45;;
13048;SDS011;6591;51.446;5.404;2023-05-07T14:54:53;5.25;;;3.30;;
13048;SDS011;6591;51.446;5.404;2023-05-07T14:57:20;3.83;;;3.13;;
13048;SDS011;6591;51.446;5.404;2023-05-07T14:59:48;3.60;;;3.25;;
13048;SDS011;6591;51.446;5.404;2023-05-07T15:02:15;3.63;;;3.33;;
13048;SDS011;6591;51.446;5.404;2023-05-07T15:04:46;4.00;;;3.40;;
13048;SDS011;6591;51.446;5.404;2023-05-07T15:07:18;4.05;;;3.65;;
13048;SDS011;6591;51.446;5.404;2023-05-07T15:09:45;3.92;;;3.15;;
13048;SDS011;6591;51.446;5.404;2023-05-07T15:12:14;3.10;;;2.72;;
13048;SDS011;6591;51.446;5.404;2023-05-07T15:14:42;3.00;;;2.58;;
13048;SDS011;6591;51.446;5.404;2023-05-07T15:17:10;3.67;;;2.63;;
13048;SDS011;6591;51.446;5.404;2023-05-07T15:19:37;2.53;;;2.30;;